createdAt,value
2022-11-24T00:01:25.834Z,82.45
2022-11-24T00:03:57.371Z,83.68
2022-11-24T00:06:26.174Z,84.28
2022-11-24T00:08:54.925Z,84.79
2022-11-24T00:11:25.707Z,85.13
2022-11-24T00:13:53.871Z,84.90
2022-11-24T00:16:26.036Z,84.88
2022-11-24T00:18:56.631Z,84.53
2022-11-24T00:21:25.276Z,83.70
2022-11-24T00:23:53.450Z,83.67
2022-11-24T00:26:26.239Z,83.65
2022-11-24T00:28:56.604Z,83.68
2022-11-24T00:31:25.555Z,83.94
2022-11-24T00:33:55.410Z,84.42
2022-11-24T00:36:25.425Z,84.79
2022-11-24T00:39:01.735Z,84.72
2022-11-24T00:41:29.923Z,84.10
2022-11-24T00:43:57.777Z,83.56
2022-11-24T00:46:26.306Z,83.63
2022-11-24T00:48:54.202Z,82.75
2022-11-24T00:51:25.225Z,82.97
2022-11-24T00:53:53.441Z,82.46
2022-11-24T00:56:20.879Z,83.33
2022-11-24T00:58:48.312Z,83.50
2022-11-24T01:01:22.039Z,81.87
2022-11-24T01:03:50.305Z,82.26
2022-11-24T01:06:20.818Z,83.14
2022-11-24T01:08:48.851Z,81.97
2022-11-24T01:11:20.307Z,82.48
2022-11-24T01:13:50.325Z,83.66
2022-11-24T01:16:26.921Z,84.20
2022-11-24T01:18:55.974Z,83.36
2022-11-24T01:21:24.149Z,83.82
2022-11-24T01:23:51.695Z,84.39
2022-11-24T01:26:21.631Z,83.91
2022-11-24T01:28:56.969Z,83.57
2022-11-24T01:31:29.692Z,83.72
2022-11-24T01:34:00.217Z,83.27
2022-11-24T01:36:42.195Z,83.07
2022-11-24T01:39:20.855Z,83.25
2022-11-24T01:41:53.087Z,82.93
2022-11-24T01:47:30.107Z,83.33
2022-11-24T01:50:02.629Z,82.16
2022-11-24T01:52:53.981Z,82.46
2022-11-24T01:55:28.017Z,81.20
2022-11-24T01:58:10.908Z,83.36
2022-11-24T02:00:41.653Z,84.00
2022-11-24T02:03:20.897Z,84.10
2022-11-24T02:06:12.162Z,83.23
2022-11-24T02:09:20.285Z,83.04
2022-11-24T02:11:48.251Z,83.59
2022-11-24T02:14:18.491Z,83.59
2022-11-24T02:16:50.005Z,84.28
2022-11-24T02:19:31.196Z,84.43
2022-11-24T02:21:58.880Z,84.07
2022-11-24T02:24:47.603Z,83.47
2022-11-24T02:27:15.009Z,82.77
2022-11-24T02:29:42.982Z,83.81
2022-11-24T02:32:11.954Z,82.53
2022-11-24T02:34:39.457Z,83.59
2022-11-24T02:37:06.758Z,83.35
2022-11-24T02:39:34.576Z,83.22
2022-11-24T02:42:10.542Z,83.26
2022-11-24T02:44:46.374Z,83.02
2022-11-24T02:47:14.215Z,83.26
2022-11-24T02:49:44.026Z,82.21
2022-11-24T02:52:18.380Z,83.24
2022-11-24T02:54:58.358Z,83.20
2022-11-24T02:57:28.858Z,82.44
2022-11-24T02:59:56.907Z,82.42
2022-11-24T03:02:24.437Z,82.98
2022-11-24T03:04:51.966Z,83.22
2022-11-24T03:07:19.814Z,83.65
2022-11-24T03:09:47.406Z,82.75
2022-11-24T03:12:15.341Z,82.38
2022-11-24T03:14:43.078Z,82.27
2022-11-24T03:17:10.603Z,81.87
2022-11-24T03:19:38.438Z,81.22
2022-11-24T03:22:06.071Z,81.33
2022-11-24T03:24:34.182Z,81.87
2022-11-24T03:27:02.111Z,82.81
2022-11-24T03:29:30.331Z,84.37
2022-11-24T03:31:58.925Z,84.81
2022-11-24T03:34:26.569Z,85.15
2022-11-24T03:36:54.010Z,84.76
2022-11-24T03:39:21.582Z,85.14
2022-11-24T03:41:51.642Z,83.64
2022-11-24T03:44:18.996Z,84.67
2022-11-24T03:46:46.497Z,84.46
2022-11-24T03:49:13.952Z,84.31
2022-11-24T03:51:41.344Z,85.13
2022-11-24T03:54:08.896Z,85.45
2022-11-24T03:56:36.325Z,85.39
2022-11-24T03:59:03.924Z,85.46
2022-11-24T04:01:31.384Z,85.47
2022-11-24T04:03:58.832Z,84.39
2022-11-24T04:06:26.339Z,84.72
2022-11-24T04:08:53.805Z,84.65
2022-11-24T04:11:39.847Z,84.78
2022-11-24T04:14:13.200Z,85.21
2022-11-24T04:16:41.594Z,83.97
2022-11-24T04:19:08.925Z,81.97
2022-11-24T04:21:36.330Z,83.24
2022-11-24T04:24:04.055Z,83.47
2022-11-24T04:26:31.552Z,84.09
2022-11-24T04:28:59.075Z,83.10
2022-11-24T04:31:26.501Z,81.95
2022-11-24T04:33:54.047Z,83.21
2022-11-24T04:36:21.497Z,83.93
2022-11-24T04:39:23.680Z,83.59
2022-11-24T04:41:36.309Z,83.43
2022-11-24T04:44:03.892Z,84.74
2022-11-24T04:46:31.700Z,85.99
2022-11-24T04:48:59.402Z,86.65
2022-11-24T04:51:26.827Z,87.30
2022-11-24T04:53:54.265Z,86.68
2022-11-24T04:56:21.725Z,86.08
2022-11-24T04:58:49.990Z,86.26
2022-11-24T05:01:17.438Z,86.54
2022-11-24T05:03:45.049Z,86.63
2022-11-24T05:06:12.426Z,86.09
2022-11-24T05:08:39.735Z,85.35
2022-11-24T05:11:08.058Z,86.71
2022-11-24T05:13:35.606Z,85.47
2022-11-24T05:16:03.325Z,84.81
2022-11-24T05:18:30.758Z,84.80
2022-11-24T05:20:58.719Z,84.27
2022-11-24T05:23:26.575Z,83.57
2022-11-24T05:25:54.247Z,83.04
2022-11-24T05:28:21.660Z,83.06
2022-11-24T05:30:49.048Z,82.52
2022-11-24T05:33:19.380Z,83.16
2022-11-24T05:35:47.291Z,84.43
2022-11-24T05:38:14.799Z,84.04
2022-11-24T05:40:43.171Z,84.22
2022-11-24T05:43:17.639Z,85.17
2022-11-24T05:45:45.411Z,84.40
2022-11-24T05:48:15.720Z,84.09
2022-11-24T05:50:46.318Z,83.66
2022-11-24T05:53:14.117Z,84.82
2022-11-24T05:55:41.492Z,84.84
2022-11-24T05:58:10.405Z,83.96
2022-11-24T06:00:38.160Z,83.28
2022-11-24T06:03:06.230Z,83.88
2022-11-24T06:05:33.841Z,83.37
2022-11-24T06:08:01.347Z,84.48
2022-11-24T06:10:29.007Z,85.05
2022-11-24T06:12:56.475Z,85.59
2022-11-24T06:15:24.301Z,87.05
2022-11-24T06:17:56.534Z,87.26
2022-11-24T06:20:29.702Z,87.08
2022-11-24T06:22:59.495Z,87.89
2022-11-24T06:25:27.258Z,87.75
2022-11-24T06:27:55.228Z,88.66
2022-11-24T06:30:22.586Z,87.93
2022-11-24T06:32:54.383Z,88.27
2022-11-24T06:35:22.255Z,88.26
2022-11-24T06:37:49.807Z,87.60
2022-11-24T06:40:17.426Z,88.30
2022-11-24T06:42:50.935Z,89.91
2022-11-24T06:45:18.463Z,89.65
2022-11-24T06:47:45.844Z,89.96
2022-11-24T06:50:13.255Z,91.38
2022-11-24T06:52:40.621Z,91.49
2022-11-24T06:55:08.531Z,92.14
2022-11-24T06:57:36.054Z,92.25
2022-11-24T07:00:06.016Z,92.33
2022-11-24T07:02:33.597Z,91.90
2022-11-24T07:05:01.101Z,90.64
2022-11-24T07:07:30.945Z,89.58
2022-11-24T07:09:58.647Z,89.55
2022-11-24T07:12:34.717Z,90.30
2022-11-24T07:15:02.735Z,89.86
2022-11-24T07:17:51.291Z,91.32
2022-11-24T07:20:18.864Z,90.58
2022-11-24T07:22:46.524Z,90.24
2022-11-24T07:25:14.882Z,91.18
2022-11-24T07:27:42.304Z,92.26
2022-11-24T07:30:10.032Z,92.57
2022-11-24T07:32:37.559Z,92.96
2022-11-24T07:35:05.442Z,92.51
2022-11-24T07:37:32.823Z,92.76
2022-11-24T07:40:00.296Z,92.43
2022-11-24T07:42:28.177Z,92.80
2022-11-24T07:44:55.575Z,92.73
2022-11-24T07:47:22.927Z,92.13
2022-11-24T07:49:50.373Z,92.64
2022-11-24T07:52:17.825Z,92.64
2022-11-24T07:54:45.213Z,93.03
2022-11-24T07:57:12.555Z,94.01
2022-11-24T07:59:39.908Z,94.53
2022-11-24T08:02:07.692Z,95.17
2022-11-24T08:04:37.286Z,94.93
2022-11-24T08:07:04.672Z,95.08
2022-11-24T08:09:32.057Z,95.26
2022-11-24T08:11:59.458Z,95.78
2022-11-24T08:14:26.805Z,96.04
2022-11-24T08:16:54.210Z,95.66
2022-11-24T08:19:22.732Z,95.83
2022-11-24T08:21:52.699Z,96.86
2022-11-24T08:24:20.170Z,95.32
2022-11-24T08:26:47.683Z,95.60
2022-11-24T08:29:15.253Z,95.33
2022-11-24T08:31:42.684Z,94.95
2022-11-24T08:34:10.992Z,95.23
2022-11-24T08:36:38.563Z,95.31
2022-11-24T08:39:05.942Z,95.04
2022-11-24T08:41:33.628Z,96.32
2022-11-24T08:44:01.017Z,96.71
2022-11-24T08:46:28.503Z,96.64
2022-11-24T08:48:56.223Z,97.76
2022-11-24T08:51:26.312Z,97.16
2022-11-24T08:54:02.227Z,97.88
2022-11-24T08:56:32.185Z,98.96
2022-11-24T08:59:00.515Z,100.00
2022-11-24T09:01:29.373Z,100.00
2022-11-24T09:03:57.193Z,100.00
2022-11-24T09:06:27.340Z,100.00
2022-11-24T09:08:55.937Z,100.00
2022-11-24T09:11:24.094Z,100.00
2022-11-24T09:13:52.008Z,100.00
2022-11-24T09:16:26.204Z,100.00
2022-11-24T09:19:05.391Z,100.00
2022-11-24T09:21:37.909Z,100.00
2022-11-24T09:24:07.616Z,100.00
2022-11-24T09:26:37.235Z,100.00
2022-11-24T09:29:08.197Z,100.00
2022-11-24T09:31:37.057Z,100.00
2022-11-24T09:34:07.257Z,100.00
2022-11-24T09:36:35.205Z,100.00
2022-11-24T09:39:03.316Z,98.88
2022-11-24T09:41:50.959Z,99.74
2022-11-24T09:44:52.537Z,99.38
2022-11-24T09:47:52.264Z,97.13
2022-11-24T09:50:25.989Z,96.15
2022-11-24T09:53:09.214Z,97.69
2022-11-24T09:55:56.494Z,97.83
2022-11-24T09:58:44.480Z,97.55
2022-11-24T10:01:26.479Z,100.00
2022-11-24T10:03:54.756Z,100.00
2022-11-24T10:06:24.176Z,99.42
2022-11-24T10:09:26.495Z,99.50
2022-11-24T10:12:03.598Z,98.34
2022-11-24T10:14:54.220Z,97.99
2022-11-24T10:17:36.689Z,98.63
2022-11-24T10:20:31.647Z,98.77
2022-11-24T10:23:28.244Z,100.00
2022-11-24T10:26:00.324Z,100.00
2022-11-24T10:28:39.223Z,99.63
2022-11-24T10:31:34.507Z,100.00
2022-11-24T10:34:10.704Z,99.64
2022-11-24T10:36:47.617Z,99.48
2022-11-24T10:39:29.742Z,99.76
2022-11-24T10:42:13.029Z,98.38
2022-11-24T10:44:41.601Z,99.52
2022-11-24T10:47:23.097Z,99.02
2022-11-24T10:49:59.024Z,99.57
2022-11-24T10:52:29.099Z,99.72
2022-11-24T10:54:59.396Z,99.82
2022-11-24T10:57:38.726Z,99.72
2022-11-24T11:00:21.631Z,99.39
2022-11-24T11:02:51.227Z,95.96
2022-11-24T11:05:42.211Z,96.05
2022-11-24T11:08:22.243Z,95.96
2022-11-24T11:11:12.544Z,96.37
2022-11-24T11:14:13.326Z,96.46
2022-11-24T11:16:55.909Z,97.20
2022-11-24T11:19:58.488Z,96.54
2022-11-24T11:22:32.439Z,97.24
2022-11-24T11:25:15.051Z,97.52
2022-11-24T11:27:42.969Z,97.49
2022-11-24T11:35:52.885Z,100.00
2022-11-24T11:38:21.088Z,100.00
2022-11-24T11:40:51.744Z,100.00
2022-11-24T11:43:41.350Z,100.00
2022-11-24T11:46:18.311Z,100.00
2022-11-24T11:48:47.196Z,100.00
2022-11-24T11:51:26.958Z,100.00
2022-11-24T11:54:19.586Z,100.00
2022-11-24T11:56:50.431Z,100.00
2022-11-24T11:59:36.721Z,100.00
2022-11-24T12:02:13.048Z,100.00
2022-11-24T12:04:57.230Z,100.00
2022-11-24T12:07:33.627Z,100.00
2022-11-24T12:10:04.157Z,100.00
2022-11-24T12:12:56.879Z,100.00
2022-11-24T12:15:45.229Z,100.00
2022-11-24T12:21:55.389Z,100.00
2022-11-24T12:24:34.895Z,100.00
2022-11-24T12:27:28.851Z,100.00
2022-11-24T12:30:03.975Z,100.00
2022-11-24T12:32:44.221Z,100.00
2022-11-24T12:35:41.886Z,100.00
2022-11-24T12:38:19.587Z,100.00
2022-11-24T12:41:41.591Z,100.00
2022-11-24T12:44:41.403Z,100.00
2022-11-24T12:47:18.190Z,100.00
2022-11-24T12:50:06.927Z,100.00
2022-11-24T12:52:42.809Z,100.00
2022-11-24T12:55:20.146Z,100.00
2022-11-24T12:58:11.281Z,100.00
2022-11-24T13:00:44.504Z,100.00
2022-11-24T13:03:24.459Z,100.00
2022-11-24T13:06:04.246Z,100.00
2022-11-24T13:08:32.086Z,100.00
2022-11-24T13:11:21.248Z,100.00
2022-11-24T13:14:00.472Z,100.00
2022-11-24T13:16:36.150Z,99.10
2022-11-24T13:19:15.404Z,98.02
2022-11-24T13:21:50.520Z,98.13
2022-11-24T13:24:19.110Z,98.27
2022-11-24T13:27:18.193Z,98.83
2022-11-24T13:29:47.539Z,99.68
2022-11-24T13:32:14.888Z,99.40
2022-11-24T13:34:42.173Z,99.88
2022-11-24T13:37:39.804Z,100.00
2022-11-24T13:40:13.567Z,100.00
2022-11-24T13:42:56.575Z,100.00
2022-11-24T13:45:39.130Z,100.00
2022-11-24T13:48:24.526Z,100.00
2022-11-24T13:50:52.387Z,100.00
2022-11-24T13:53:30.767Z,100.00
2022-11-24T13:56:20.411Z,99.93
2022-11-24T13:59:17.357Z,98.48
2022-11-24T14:01:47.066Z,97.70
2022-11-24T14:04:34.210Z,97.31
2022-11-24T14:07:09.049Z,96.67
2022-11-24T14:09:45.182Z,96.51
2022-11-24T14:12:25.497Z,96.56
2022-11-24T14:14:57.674Z,95.69
2022-11-24T14:17:28.862Z,95.50
2022-11-24T14:19:58.288Z,94.34
2022-11-24T14:22:35.427Z,94.24
2022-11-24T14:25:03.824Z,94.56
2022-11-24T14:27:34.567Z,94.21
2022-11-24T14:30:08.067Z,94.00
2022-11-24T14:32:35.599Z,94.11
2022-11-24T14:35:15.726Z,93.99
2022-11-24T14:37:43.268Z,95.12
2022-11-24T14:41:09.429Z,94.37
2022-11-24T14:43:37.017Z,95.23
2022-11-24T14:46:09.564Z,95.90
2022-11-24T14:48:47.157Z,95.70
2022-11-24T14:51:35.633Z,96.61
2022-11-24T14:54:14.094Z,96.48
2022-11-24T14:56:42.383Z,97.64
2022-11-24T14:59:25.187Z,98.75
2022-11-24T15:01:52.769Z,98.50
2022-11-24T15:05:00.906Z,100.00
2022-11-24T15:07:19.516Z,100.00
2022-11-24T15:09:53.415Z,100.00
2022-11-24T15:12:29.195Z,100.00
2022-11-24T15:15:04.146Z,100.00
2022-11-24T15:17:32.673Z,100.00
2022-11-24T15:20:09.865Z,100.00
2022-11-24T15:22:41.322Z,100.00
2022-11-24T15:25:35.314Z,100.00
2022-11-24T15:28:02.681Z,100.00
2022-11-24T15:30:30.978Z,100.00
2022-11-24T15:33:00.073Z,100.00
2022-11-24T15:35:31.674Z,100.00
2022-11-24T15:37:59.602Z,100.00
2022-11-24T15:40:26.946Z,100.00
2022-11-24T15:42:57.330Z,100.00
2022-11-24T15:45:27.721Z,100.00
2022-11-24T15:47:55.470Z,100.00
2022-11-24T15:50:23.174Z,100.00
2022-11-24T15:52:50.877Z,100.00
2022-11-24T15:55:22.651Z,100.00
2022-11-24T15:57:50.155Z,100.00
2022-11-24T16:00:23.391Z,100.00
2022-11-24T16:02:51.141Z,100.00
2022-11-24T16:05:18.777Z,100.00
2022-11-24T16:07:46.194Z,100.00
2022-11-24T16:10:24.081Z,100.00
2022-11-24T16:12:51.603Z,100.00
2022-11-24T16:15:19.087Z,100.00
2022-11-24T16:17:47.046Z,100.00
2022-11-24T16:20:15.068Z,100.00
2022-11-24T16:22:44.127Z,100.00
2022-11-24T16:25:12.094Z,100.00
2022-11-24T16:27:40.671Z,100.00
2022-11-24T16:30:11.412Z,100.00
2022-11-24T16:32:38.748Z,100.00
2022-11-24T16:35:06.882Z,100.00
2022-11-24T16:37:34.550Z,100.00
2022-11-24T16:40:02.922Z,100.00
2022-11-24T16:42:31.695Z,100.00
2022-11-24T16:44:59.148Z,100.00
2022-11-24T16:47:26.735Z,100.00
2022-11-24T16:49:54.183Z,100.00
2022-11-24T16:52:21.796Z,100.00
2022-11-24T16:54:49.242Z,100.00
2022-11-24T16:57:16.920Z,100.00
2022-11-24T16:59:46.180Z,100.00
2022-11-24T17:02:14.157Z,100.00
2022-11-24T17:04:41.773Z,100.00
2022-11-24T17:07:09.297Z,100.00
2022-11-24T17:09:40.630Z,100.00
2022-11-24T17:12:08.439Z,100.00
2022-11-24T17:14:36.463Z,100.00
2022-11-24T17:17:04.608Z,100.00
2022-11-24T17:19:32.183Z,100.00
2022-11-24T17:21:59.606Z,100.00
2022-11-24T17:24:27.243Z,100.00
2022-11-24T17:26:55.374Z,100.00
2022-11-24T17:29:22.896Z,100.00
2022-11-24T17:31:50.575Z,100.00
2022-11-24T17:34:18.356Z,100.00
2022-11-24T17:36:46.333Z,100.00
2022-11-24T17:39:13.888Z,100.00
2022-11-24T17:41:41.626Z,100.00
2022-11-24T17:44:10.845Z,100.00
2022-11-24T17:46:39.222Z,100.00
2022-11-24T17:49:13.353Z,100.00
2022-11-24T17:51:40.995Z,100.00
2022-11-24T17:54:44.814Z,100.00
2022-11-24T17:56:56.125Z,100.00
2022-11-24T17:59:23.619Z,100.00
2022-11-24T18:01:51.161Z,100.00
2022-11-24T18:04:18.678Z,100.00
2022-11-24T18:06:46.455Z,100.00
2022-11-24T18:09:13.902Z,100.00
2022-11-24T18:11:41.397Z,100.00
2022-11-24T18:14:10.400Z,100.00
2022-11-24T18:16:37.956Z,100.00
2022-11-24T18:19:10.999Z,100.00
2022-11-24T18:21:44.883Z,100.00
2022-11-24T18:24:13.464Z,100.00
2022-11-24T18:26:42.484Z,100.00
2022-11-24T18:29:11.615Z,100.00
2022-11-24T18:31:40.670Z,100.00
2022-11-24T18:34:08.435Z,100.00
2022-11-24T18:36:36.433Z,100.00
2022-11-24T18:39:06.314Z,100.00
2022-11-24T18:41:34.313Z,100.00
2022-11-24T18:44:08.318Z,100.00
2022-11-24T18:46:36.937Z,100.00
2022-11-24T18:49:04.626Z,100.00
2022-11-24T18:51:32.008Z,100.00
2022-11-24T18:53:59.565Z,100.00
2022-11-24T18:56:27.201Z,100.00
2022-11-24T18:58:56.996Z,100.00
2022-11-24T19:01:27.654Z,100.00
2022-11-24T19:04:00.823Z,100.00
2022-11-24T19:06:34.312Z,100.00
2022-11-24T19:09:07.436Z,100.00
2022-11-24T19:11:37.671Z,100.00
2022-11-24T19:14:06.989Z,100.00
2022-11-24T19:16:35.429Z,100.00
2022-11-24T19:19:03.227Z,100.00
2022-11-24T19:21:33.053Z,100.00
2022-11-24T19:24:05.003Z,100.00
2022-11-24T19:26:35.311Z,100.00
2022-11-24T19:29:03.549Z,100.00
2022-11-24T19:31:31.165Z,100.00
2022-11-24T19:34:00.761Z,100.00
2022-11-24T19:36:28.144Z,100.00
2022-11-24T19:38:56.943Z,100.00
2022-11-24T19:41:27.579Z,100.00
2022-11-24T19:43:55.112Z,100.00
2022-11-24T19:46:26.492Z,100.00
2022-11-24T19:48:56.381Z,100.00
2022-11-24T19:51:26.417Z,100.00
2022-11-24T19:53:54.372Z,100.00
2022-11-24T19:56:24.579Z,100.00
2022-11-24T19:58:53.554Z,100.00
2022-11-24T20:01:24.970Z,100.00
2022-11-24T20:04:03.802Z,100.00
2022-11-24T20:06:35.211Z,100.00
2022-11-24T20:09:04.112Z,100.00
2022-11-24T20:11:31.862Z,100.00
2022-11-24T20:13:59.480Z,100.00
2022-11-24T20:16:30.148Z,100.00
2022-11-24T20:19:00.518Z,100.00
2022-11-24T20:21:31.536Z,100.00
2022-11-24T20:24:06.658Z,100.00
2022-11-24T20:26:39.735Z,100.00
2022-11-24T20:29:09.881Z,100.00
2022-11-24T20:31:40.869Z,100.00
2022-11-24T20:34:08.960Z,100.00
2022-11-24T20:36:38.367Z,100.00
2022-11-24T20:39:09.733Z,100.00
2022-11-24T20:41:39.204Z,100.00
2022-11-24T20:44:10.878Z,100.00
2022-11-24T20:46:40.431Z,100.00
2022-11-24T20:49:09.142Z,100.00
2022-11-24T20:51:40.045Z,100.00
2022-11-24T20:54:08.680Z,100.00
2022-11-24T20:56:40.060Z,100.00
2022-11-24T20:59:08.767Z,100.00
2022-11-24T21:01:38.929Z,100.00
2022-11-24T21:04:08.855Z,100.00
2022-11-24T21:06:37.275Z,100.00
2022-11-24T21:09:05.985Z,100.00
2022-11-24T21:11:33.341Z,100.00
2022-11-24T21:14:02.405Z,100.00
2022-11-24T21:16:32.370Z,100.00
2022-11-24T21:19:06.280Z,100.00
2022-11-24T21:21:34.733Z,100.00
2022-11-24T21:24:23.395Z,100.00
2022-11-24T21:26:52.972Z,100.00
2022-11-24T21:29:23.706Z,100.00
2022-11-24T21:31:51.498Z,100.00
2022-11-24T21:34:19.701Z,100.00
2022-11-24T21:36:47.462Z,100.00
2022-11-24T21:39:15.973Z,100.00
2022-11-24T21:41:44.083Z,100.00
2022-11-24T21:44:13.185Z,100.00
2022-11-24T21:46:46.076Z,100.00
2022-11-24T21:49:17.058Z,100.00
2022-11-24T21:51:44.482Z,100.00
2022-11-24T21:54:11.812Z,100.00
2022-11-24T21:56:39.172Z,100.00
2022-11-24T21:59:06.509Z,100.00
2022-11-24T22:01:34.099Z,100.00
2022-11-24T22:04:01.580Z,100.00
2022-11-24T22:06:29.013Z,100.00
2022-11-24T22:08:56.544Z,100.00
2022-11-24T22:11:25.661Z,100.00
2022-11-24T22:13:53.453Z,100.00
2022-11-24T22:16:23.418Z,100.00
2022-11-24T22:18:51.639Z,100.00
2022-11-24T22:21:25.792Z,100.00
2022-11-24T22:23:53.562Z,100.00
2022-11-24T22:26:23.052Z,100.00
2022-11-24T22:28:51.120Z,100.00
2022-11-24T22:31:21.238Z,100.00
2022-11-24T22:33:49.274Z,100.00
2022-11-24T22:36:18.654Z,100.00
2022-11-24T22:38:46.065Z,100.00
2022-11-24T22:41:15.582Z,100.00
2022-11-24T22:43:44.275Z,100.00
2022-11-24T22:46:22.831Z,100.00
2022-11-24T22:49:09.335Z,100.00
2022-11-24T22:51:39.326Z,100.00
2022-11-24T22:54:25.344Z,100.00
2022-11-24T22:56:52.745Z,100.00
2022-11-24T22:59:20.173Z,100.00
2022-11-24T23:02:06.339Z,100.00
2022-11-24T23:04:34.187Z,100.00
2022-11-24T23:07:01.736Z,100.00
2022-11-24T23:09:29.741Z,100.00
2022-11-24T23:11:57.116Z,100.00
2022-11-24T23:14:24.495Z,100.00
2022-11-24T23:16:53.516Z,100.00
2022-11-24T23:19:20.979Z,100.00
2022-11-24T23:21:48.329Z,100.00
2022-11-24T23:24:15.747Z,100.00
2022-11-24T23:27:01.777Z,100.00
2022-11-24T23:29:47.687Z,100.00
2022-11-24T23:32:15.129Z,100.00
2022-11-24T23:35:01.233Z,100.00
2022-11-24T23:37:52.111Z,100.00
2022-11-24T23:40:16.326Z,100.00
2022-11-24T23:42:47.398Z,100.00
2022-11-24T23:45:15.498Z,100.00
2022-11-24T23:47:43.061Z,100.00
2022-11-24T23:50:10.652Z,100.00
2022-11-24T23:52:38.048Z,100.00
2022-11-24T23:55:06.015Z,100.00
2022-11-24T23:57:33.465Z,100.00
